sensor_id;sensor_type;location;lat;lon;timestamp;pressure;altitude;pressure_sealevel;temperature
78369;BMP280;71113;43.092;-89.268;2023-12-20T00:01:40;98527.75;;;19.99
78369;BMP280;71113;43.092;-89.268;2023-12-20T00:04:06;98528.22;;;20.01
78369;BMP280;71113;43.092;-89.268;2023-12-20T00:06:32;98533.19;;;20.03
78369;BMP280;71113;43.092;-89.268;2023-12-20T00:08:58;98531.31;;;20.03
78369;BMP280;71113;43.092;-89.268;2023-12-20T00:11:24;98537.41;;;20.04
78369;BMP280;71113;43.092;-89.268;2023-12-20T00:13:50;98531.03;;;20.05
78369;BMP280;71113;43.092;-89.268;2023-12-20T00:16:16;98528.03;;;20.06
78369;BMP280;71113;43.092;-89.268;2023-12-20T00:18:42;98528.03;;;20.06
78369;BMP280;71113;43.092;-89.268;2023-12-20T00:21:08;98524.28;;;20.07
78369;BMP280;71113;43.092;-89.268;2023-12-20T00:23:34;98531.94;;;20.09
78369;BMP280;71113;43.092;-89.268;2023-12-20T00:25:59;98540.31;;;20.11
78369;BMP280;71113;43.092;-89.268;2023-12-20T00:28:25;98533.94;;;20.12
78369;BMP280;71113;43.092;-89.268;2023-12-20T00:30:51;98534.38;;;20.14
78369;BMP280;71113;43.092;-89.268;2023-12-20T00:33:17;98533.28;;;20.15
78369;BMP280;71113;43.092;-89.268;2023-12-20T00:35:43;98525.34;;;20.15
78369;BMP280;71113;43.092;-89.268;2023-12-20T00:38:09;98532.19;;;20.16
78369;BMP280;71113;43.092;-89.268;2023-12-20T00:40:35;98524.69;;;20.18
78369;BMP280;71113;43.092;-89.268;2023-12-20T00:43:01;98534.97;;;20.20
78369;BMP280;71113;43.092;-89.268;2023-12-20T00:45:27;98533.91;;;20.21
78369;BMP280;71113;43.092;-89.268;2023-12-20T00:47:52;98539.97;;;20.21
78369;BMP280;71113;43.092;-89.268;2023-12-20T00:50:18;98532.31;;;20.20
78369;BMP280;71113;43.092;-89.268;2023-12-20T00:52:44;98542.63;;;20.21
78369;BMP280;71113;43.092;-89.268;2023-12-20T00:55:11;98539.22;;;20.21
78369;BMP280;71113;43.092;-89.268;2023-12-20T00:57:37;98537.34;;;20.21
78369;BMP280;71113;43.092;-89.268;2023-12-20T01:00:03;98541.03;;;20.20
78369;BMP280;71113;43.092;-89.268;2023-12-20T01:02:29;98536.06;;;20.19
78369;BMP280;71113;43.092;-89.268;2023-12-20T01:04:55;98536.56;;;20.21
78369;BMP280;71113;43.092;-89.268;2023-12-20T01:07:21;98540.28;;;20.20
78369;BMP280;71113;43.092;-89.268;2023-12-20T01:09:47;98545.28;;;20.21
78369;BMP280;71113;43.092;-89.268;2023-12-20T01:12:13;98541.53;;;20.22
78369;BMP280;71113;43.092;-89.268;2023-12-20T01:14:39;98546.06;;;20.22
78369;BMP280;71113;43.092;-89.268;2023-12-20T01:17:05;98548.34;;;20.23
78369;BMP280;71113;43.092;-89.268;2023-12-20T01:19:31;98551.00;;;20.23
78369;BMP280;71113;43.092;-89.268;2023-12-20T01:21:57;98554.44;;;20.24
78369;BMP280;71113;43.092;-89.268;2023-12-20T01:24:23;98555.69;;;20.26
78369;BMP280;71113;43.092;-89.268;2023-12-20T01:26:48;98554.16;;;20.25
78369;BMP280;71113;43.092;-89.268;2023-12-20T01:29:14;98564.09;;;20.28
78369;BMP280;71113;43.092;-89.268;2023-12-20T01:31:41;98563.63;;;20.26
78369;BMP280;71113;43.092;-89.268;2023-12-20T01:34:07;98559.09;;;20.27
78369;BMP280;71113;43.092;-89.268;2023-12-20T01:36:33;98573.88;;;20.28
78369;BMP280;71113;43.092;-89.268;2023-12-20T01:38:59;98566.28;;;20.26
78369;BMP280;71113;43.092;-89.268;2023-12-20T01:41:25;98573.13;;;20.27
78369;BMP280;71113;43.092;-89.268;2023-12-20T01:43:50;98581.06;;;20.27
78369;BMP280;71113;43.092;-89.268;2023-12-20T01:46:19;98586.38;;;20.27
78369;BMP280;71113;43.092;-89.268;2023-12-20T01:48:46;98588.59;;;20.25
78369;BMP280;71113;43.092;-89.268;2023-12-20T01:51:12;98590.88;;;20.27
78369;BMP280;71113;43.092;-89.268;2023-12-20T01:53:38;98593.88;;;20.25
78369;BMP280;71113;43.092;-89.268;2023-12-20T01:56:05;98594.66;;;20.26
78369;BMP280;71113;43.092;-89.268;2023-12-20T01:58:32;98597.63;;;20.24
78369;BMP280;71113;43.092;-89.268;2023-12-20T02:00:58;98599.81;;;20.22
78369;BMP280;71113;43.092;-89.268;2023-12-20T02:03:24;98601.34;;;20.23
78369;BMP280;71113;43.092;-89.268;2023-12-20T02:05:50;98609.63;;;20.22
78369;BMP280;71113;43.092;-89.268;2023-12-20T02:08:16;98609.63;;;20.22
78369;BMP280;71113;43.092;-89.268;2023-12-20T02:10:42;98607.75;;;20.22
78369;BMP280;71113;43.092;-89.268;2023-12-20T02:13:08;98606.50;;;20.20
78369;BMP280;71113;43.092;-89.268;2023-12-20T02:15:34;98619.75;;;20.20
78369;BMP280;71113;43.092;-89.268;2023-12-20T02:18:02;98620.84;;;20.19
78369;BMP280;71113;43.092;-89.268;2023-12-20T02:20:28;98622.72;;;20.18
78369;BMP280;71113;43.092;-89.268;2023-12-20T02:22:54;98635.22;;;20.18
78369;BMP280;71113;43.092;-89.268;2023-12-20T02:25:20;98627.56;;;20.16
78369;BMP280;71113;43.092;-89.268;2023-12-20T02:27:47;98623.84;;;20.17
78369;BMP280;71113;43.092;-89.268;2023-12-20T02:30:14;98626.78;;;20.16
78369;BMP280;71113;43.092;-89.268;2023-12-20T02:32:40;98636.94;;;20.14
78369;BMP280;71113;43.092;-89.268;2023-12-20T02:35:06;98632.84;;;20.16
78369;BMP280;71113;43.092;-89.268;2023-12-20T02:37:33;98633.81;;;20.11
78369;BMP280;71113;43.092;-89.268;2023-12-20T02:39:59;98638.31;;;20.11
78369;BMP280;71113;43.092;-89.268;2023-12-20T02:42:25;98631.16;;;20.11
78369;BMP280;71113;43.092;-89.268;2023-12-20T02:44:51;98635.66;;;20.11
78369;BMP280;71113;43.092;-89.268;2023-12-20T02:47:17;98638.66;;;20.09
78369;BMP280;71113;43.092;-89.268;2023-12-20T02:49:43;98642.69;;;20.07
78369;BMP280;71113;43.092;-89.268;2023-12-20T02:52:09;98638.50;;;20.06
78369;BMP280;71113;43.092;-89.268;2023-12-20T02:54:35;98636.97;;;20.05
78369;BMP280;71113;43.092;-89.268;2023-12-20T02:57:01;98645.97;;;20.04
78369;BMP280;71113;43.092;-89.268;2023-12-20T02:59:27;98642.88;;;20.02
78369;BMP280;71113;43.092;-89.268;2023-12-20T03:01:53;98645.06;;;20.00
78369;BMP280;71113;43.092;-89.268;2023-12-20T03:04:19;98642.41;;;20.00
78369;BMP280;71113;43.092;-89.268;2023-12-20T03:06:45;98651.91;;;20.01
78369;BMP280;71113;43.092;-89.268;2023-12-20T03:09:11;98648.03;;;19.98
78369;BMP280;71113;43.092;-89.268;2023-12-20T03:11:37;98654.88;;;19.99
78369;BMP280;71113;43.092;-89.268;2023-12-20T03:14:03;98664.19;;;19.97
78369;BMP280;71113;43.092;-89.268;2023-12-20T03:16:29;98668.75;;;19.96
78369;BMP280;71113;43.092;-89.268;2023-12-20T03:18:56;98662.22;;;19.94
78369;BMP280;71113;43.092;-89.268;2023-12-20T03:21:22;98666.72;;;19.93
78369;BMP280;71113;43.092;-89.268;2023-12-20T03:23:48;98672.03;;;19.93
78369;BMP280;71113;43.092;-89.268;2023-12-20T03:26:14;98678.09;;;19.94
78369;BMP280;71113;43.092;-89.268;2023-12-20T03:28:40;98686.31;;;19.92
78369;BMP280;71113;43.092;-89.268;2023-12-20T03:31:06;98691.97;;;19.91
78369;BMP280;71113;43.092;-89.268;2023-12-20T03:33:32;98701.00;;;19.90
78369;BMP280;71113;43.092;-89.268;2023-12-20T03:35:58;98700.53;;;19.88
78369;BMP280;71113;43.092;-89.268;2023-12-20T03:38:24;98708.13;;;19.89
78369;BMP280;71113;43.092;-89.268;2023-12-20T03:40:50;98715.66;;;19.87
78369;BMP280;71113;43.092;-89.268;2023-12-20T03:43:16;98721.25;;;19.86
78369;BMP280;71113;43.092;-89.268;2023-12-20T03:45:42;98715.16;;;19.85
78369;BMP280;71113;43.092;-89.268;2023-12-20T03:48:08;98718.13;;;19.84
78369;BMP280;71113;43.092;-89.268;2023-12-20T03:50:35;98721.53;;;19.84
78369;BMP280;71113;43.092;-89.268;2023-12-20T03:53:01;98723.75;;;19.82
78369;BMP280;71113;43.092;-89.268;2023-12-20T03:55:27;98721.09;;;19.82
78369;BMP280;71113;43.092;-89.268;2023-12-20T03:57:53;98729.06;;;19.82
78369;BMP280;71113;43.092;-89.268;2023-12-20T04:00:19;98728.91;;;19.78
78369;BMP280;71113;43.092;-89.268;2023-12-20T04:02:45;98731.81;;;19.77
78369;BMP280;71113;43.092;-89.268;2023-12-20T04:05:11;98737.13;;;19.77
78369;BMP280;71113;43.092;-89.268;2023-12-20T04:07:38;98737.13;;;19.77
78369;BMP280;71113;43.092;-89.268;2023-12-20T04:10:05;98735.56;;;19.76
78369;BMP280;71113;43.092;-89.268;2023-12-20T04:12:32;98734.78;;;19.75
78369;BMP280;71113;43.092;-89.268;2023-12-20T04:14:58;98733.25;;;19.74
78369;BMP280;71113;43.092;-89.268;2023-12-20T04:17:24;98739.63;;;19.73
78369;BMP280;71113;43.092;-89.268;2023-12-20T04:19:50;98736.50;;;19.71
78369;BMP280;71113;43.092;-89.268;2023-12-20T04:22:19;98738.84;;;19.73
78369;BMP280;71113;43.092;-89.268;2023-12-20T04:24:45;98744.44;;;19.71
78369;BMP280;71113;43.092;-89.268;2023-12-20T04:27:11;98736.50;;;19.71
78369;BMP280;71113;43.092;-89.268;2023-12-20T04:29:37;98742.09;;;19.70
78369;BMP280;71113;43.092;-89.268;2023-12-20T04:32:04;98751.91;;;19.69
78369;BMP280;71113;43.092;-89.268;2023-12-20T04:34:30;98744.28;;;19.68
78369;BMP280;71113;43.092;-89.268;2023-12-20T04:36:56;98748.81;;;19.67
78369;BMP280;71113;43.092;-89.268;2023-12-20T04:39:22;98754.88;;;19.68
78369;BMP280;71113;43.092;-89.268;2023-12-20T04:41:48;98751.75;;;19.66
78369;BMP280;71113;43.092;-89.268;2023-12-20T04:44:15;98750.22;;;19.65
78369;BMP280;71113;43.092;-89.268;2023-12-20T04:46:41;98753.63;;;19.65
78369;BMP280;71113;43.092;-89.268;2023-12-20T04:49:07;98753.16;;;19.63
78369;BMP280;71113;43.092;-89.268;2023-12-20T04:51:34;98757.38;;;19.64
78369;BMP280;71113;43.092;-89.268;2023-12-20T04:54:00;98757.69;;;19.63
78369;BMP280;71113;43.092;-89.268;2023-12-20T04:56:26;98758.00;;;19.61
78369;BMP280;71113;43.092;-89.268;2023-12-20T04:58:52;98754.72;;;19.56
78369;BMP280;71113;43.092;-89.268;2023-12-20T05:01:18;98750.34;;;19.51
78369;BMP280;71113;43.092;-89.268;2023-12-20T05:03:44;98761.38;;;19.53
78369;BMP280;71113;43.092;-89.268;2023-12-20T05:06:10;98760.78;;;19.56
78369;BMP280;71113;43.092;-89.268;2023-12-20T05:08:36;98760.28;;;19.54
78369;BMP280;71113;43.092;-89.268;2023-12-20T05:11:02;98766.09;;;19.56
78369;BMP280;71113;43.092;-89.268;2023-12-20T05:13:28;98761.06;;;19.55
78369;BMP280;71113;43.092;-89.268;2023-12-20T05:15:54;98767.16;;;19.55
78369;BMP280;71113;43.092;-89.268;2023-12-20T05:18:21;98770.88;;;19.54
78369;BMP280;71113;43.092;-89.268;2023-12-20T05:20:47;98767.78;;;19.52
78369;BMP280;71113;43.092;-89.268;2023-12-20T05:23:13;98773.09;;;19.52
78369;BMP280;71113;43.092;-89.268;2023-12-20T05:25:39;98777.59;;;19.52
78369;BMP280;71113;43.092;-89.268;2023-12-20T05:28:05;98772.59;;;19.50
78369;BMP280;71113;43.092;-89.268;2023-12-20T05:30:31;98777.88;;;19.50
78369;BMP280;71113;43.092;-89.268;2023-12-20T05:32:57;98777.88;;;19.50
78369;BMP280;71113;43.092;-89.268;2023-12-20T05:35:23;98773.66;;;19.49
78369;BMP280;71113;43.092;-89.268;2023-12-20T05:37:49;98780.84;;;19.48
78369;BMP280;71113;43.092;-89.268;2023-12-20T05:40:15;98781.16;;;19.47
78369;BMP280;71113;43.092;-89.268;2023-12-20T05:42:41;98772.41;;;19.46
78369;BMP280;71113;43.092;-89.268;2023-12-20T05:45:07;98772.72;;;19.45
78369;BMP280;71113;43.092;-89.268;2023-12-20T05:47:33;98779.09;;;19.44
78369;BMP280;71113;43.092;-89.268;2023-12-20T05:49:59;98781.75;;;19.44
78369;BMP280;71113;43.092;-89.268;2023-12-20T05:52:25;98773.81;;;19.44
78369;BMP280;71113;43.092;-89.268;2023-12-20T05:54:51;98776.00;;;19.42
78369;BMP280;71113;43.092;-89.268;2023-12-20T05:57:17;98769.63;;;19.43
78369;BMP280;71113;43.092;-89.268;2023-12-20T05:59:43;98769.28;;;19.36
78369;BMP280;71113;43.092;-89.268;2023-12-20T06:02:09;98766.19;;;19.34
78369;BMP280;71113;43.092;-89.268;2023-12-20T06:04:35;98759.50;;;19.36
78369;BMP280;71113;43.092;-89.268;2023-12-20T06:07:01;98760.28;;;19.37
78369;BMP280;71113;43.092;-89.268;2023-12-20T06:09:27;98760.28;;;19.37
78369;BMP280;71113;43.092;-89.268;2023-12-20T06:11:53;98764.00;;;19.36
78369;BMP280;71113;43.092;-89.268;2023-12-20T06:14:19;98763.19;;;19.35
78369;BMP280;71113;43.092;-89.268;2023-12-20T06:16:45;98757.13;;;19.35
78369;BMP280;71113;43.092;-89.268;2023-12-20T06:19:11;98760.56;;;19.35
78369;BMP280;71113;43.092;-89.268;2023-12-20T06:21:37;98763.53;;;19.34
78369;BMP280;71113;43.092;-89.268;2023-12-20T06:24:03;98762.75;;;19.33
78369;BMP280;71113;43.092;-89.268;2023-12-20T06:26:29;98765.41;;;19.33
78369;BMP280;71113;43.092;-89.268;2023-12-20T06:28:55;98770.69;;;19.33
78369;BMP280;71113;43.092;-89.268;2023-12-20T06:31:21;98763.06;;;19.32
78369;BMP280;71113;43.092;-89.268;2023-12-20T06:33:47;98759.94;;;19.30
78369;BMP280;71113;43.092;-89.268;2023-12-20T06:36:15;98766.31;;;19.29
78369;BMP280;71113;43.092;-89.268;2023-12-20T06:38:41;98764.75;;;19.28
78369;BMP280;71113;43.092;-89.268;2023-12-20T06:41:07;98768.19;;;19.28
78369;BMP280;71113;43.092;-89.268;2023-12-20T06:43:33;98773.75;;;19.27
78369;BMP280;71113;43.092;-89.268;2023-12-20T06:46:02;98773.75;;;19.27
78369;BMP280;71113;43.092;-89.268;2023-12-20T06:48:28;98763.50;;;19.25
78369;BMP280;71113;43.092;-89.268;2023-12-20T06:50:54;98769.56;;;19.26
78369;BMP280;71113;43.092;-89.268;2023-12-20T06:53:20;98762.25;;;19.23
78369;BMP280;71113;43.092;-89.268;2023-12-20T06:55:46;98766.44;;;19.24
78369;BMP280;71113;43.092;-89.268;2023-12-20T06:58:11;98771.25;;;19.22
78369;BMP280;71113;43.092;-89.268;2023-12-20T07:00:37;98767.69;;;19.17
78369;BMP280;71113;43.092;-89.268;2023-12-20T07:03:03;98768.78;;;19.16
78369;BMP280;71113;43.092;-89.268;2023-12-20T07:05:29;98769.22;;;19.18
78369;BMP280;71113;43.092;-89.268;2023-12-20T07:07:55;98774.25;;;19.20
78369;BMP280;71113;43.092;-89.268;2023-12-20T07:10:21;98771.09;;;19.18
78369;BMP280;71113;43.092;-89.268;2023-12-20T07:12:47;98765.81;;;19.18
78369;BMP280;71113;43.092;-89.268;2023-12-20T07:15:14;98765.03;;;19.17
78369;BMP280;71113;43.092;-89.268;2023-12-20T07:17:40;98765.03;;;19.17
78369;BMP280;71113;43.092;-89.268;2023-12-20T07:20:26;98770.63;;;19.16
78369;BMP280;71113;43.092;-89.268;2023-12-20T07:22:52;98772.19;;;19.17
78369;BMP280;71113;43.092;-89.268;2023-12-20T07:25:18;98765.34;;;19.16
78369;BMP280;71113;43.092;-89.268;2023-12-20T07:27:44;98765.63;;;19.14
78369;BMP280;71113;43.092;-89.268;2023-12-20T07:30:10;98755.38;;;19.13
78369;BMP280;71113;43.092;-89.268;2023-12-20T07:32:36;98766.72;;;19.13
78369;BMP280;71113;43.092;-89.268;2023-12-20T07:35:02;98766.41;;;19.15
78369;BMP280;71113;43.092;-89.268;2023-12-20T07:37:28;98768.59;;;19.13
78369;BMP280;71113;43.092;-89.268;2023-12-20T07:39:54;98770.47;;;19.12
78369;BMP280;71113;43.092;-89.268;2023-12-20T07:42:20;98767.34;;;19.10
78369;BMP280;71113;43.092;-89.268;2023-12-20T07:44:47;98765.47;;;19.11
78369;BMP280;71113;43.092;-89.268;2023-12-20T07:47:13;98767.34;;;19.10
78369;BMP280;71113;43.092;-89.268;2023-12-20T07:49:42;98772.63;;;19.10
78369;BMP280;71113;43.092;-89.268;2023-12-20T07:52:08;98774.50;;;19.10
78369;BMP280;71113;43.092;-89.268;2023-12-20T07:54:34;98781.19;;;19.07
78369;BMP280;71113;43.092;-89.268;2023-12-20T07:57:00;98781.19;;;19.07
78369;BMP280;71113;43.092;-89.268;2023-12-20T07:59:26;98782.84;;;19.03
78369;BMP280;71113;43.092;-89.268;2023-12-20T08:01:52;98783.47;;;19.00
78369;BMP280;71113;43.092;-89.268;2023-12-20T08:04:18;98774.47;;;19.01
78369;BMP280;71113;43.092;-89.268;2023-12-20T08:06:43;98788.91;;;19.04
78369;BMP280;71113;43.092;-89.268;2023-12-20T08:09:09;98786.28;;;19.04
78369;BMP280;71113;43.092;-89.268;2023-12-20T08:11:35;98786.59;;;19.02
78369;BMP280;71113;43.092;-89.268;2023-12-20T08:14:01;98797.19;;;19.02
78369;BMP280;71113;43.092;-89.268;2023-12-20T08:16:27;98793.75;;;19.02
78369;BMP280;71113;43.092;-89.268;2023-12-20T08:18:53;98792.19;;;19.01
78369;BMP280;71113;43.092;-89.268;2023-12-20T08:21:19;98795.63;;;19.01
78369;BMP280;71113;43.092;-89.268;2023-12-20T08:23:47;98794.84;;;19.01
78369;BMP280;71113;43.092;-89.268;2023-12-20T08:26:13;98794.03;;;19.00
78369;BMP280;71113;43.092;-89.268;2023-12-20T08:28:39;98797.78;;;18.99
78369;BMP280;71113;43.092;-89.268;2023-12-20T08:31:05;98791.69;;;18.99
78369;BMP280;71113;43.092;-89.268;2023-12-20T08:33:31;98792.81;;;18.98
78369;BMP280;71113;43.092;-89.268;2023-12-20T08:35:56;98790.16;;;18.98
78369;BMP280;71113;43.092;-89.268;2023-12-20T08:38:23;98795.72;;;18.96
78369;BMP280;71113;43.092;-89.268;2023-12-20T08:40:49;98806.03;;;18.98
78369;BMP280;71113;43.092;-89.268;2023-12-20T08:43:15;98803.66;;;18.96
78369;BMP280;71113;43.092;-89.268;2023-12-20T08:45:40;98801.31;;;18.95
78369;BMP280;71113;43.092;-89.268;2023-12-20T08:48:06;98803.19;;;18.94
78369;BMP280;71113;43.092;-89.268;2023-12-20T08:50:32;98805.09;;;18.94
78369;BMP280;71113;43.092;-89.268;2023-12-20T08:52:58;98794.50;;;18.94
78369;BMP280;71113;43.092;-89.268;2023-12-20T08:55:24;98800.06;;;18.92
78369;BMP280;71113;43.092;-89.268;2023-12-20T08:57:52;98797.72;;;18.91
78369;BMP280;71113;43.092;-89.268;2023-12-20T09:00:18;98792.56;;;18.85
78369;BMP280;71113;43.092;-89.268;2023-12-20T09:02:46;98790.25;;;18.84
78369;BMP280;71113;43.092;-89.268;2023-12-20T09:05:12;98785.44;;;18.86
78369;BMP280;71113;43.092;-89.268;2023-12-20T09:07:38;98790.41;;;18.87
78369;BMP280;71113;43.092;-89.268;2023-12-20T09:10:04;98791.50;;;18.86
78369;BMP280;71113;43.092;-89.268;2023-12-20T09:12:29;98788.84;;;18.86
78369;BMP280;71113;43.092;-89.268;2023-12-20T09:14:55;98796.78;;;18.86
78369;BMP280;71113;43.092;-89.268;2023-12-20T09:17:21;98805.50;;;18.87
78369;BMP280;71113;43.092;-89.268;2023-12-20T09:19:48;98798.66;;;18.86
78369;BMP280;71113;43.092;-89.268;2023-12-20T09:22:15;98797.88;;;18.85
78369;BMP280;71113;43.092;-89.268;2023-12-20T09:24:40;98793.38;;;18.86
78369;BMP280;71113;43.092;-89.268;2023-12-20T09:27:06;98789.13;;;18.85
78369;BMP280;71113;43.092;-89.268;2023-12-20T09:29:32;98797.06;;;18.85
78369;BMP280;71113;43.092;-89.268;2023-12-20T09:31:58;98792.09;;;18.83
78369;BMP280;71113;43.092;-89.268;2023-12-20T09:34:24;98793.97;;;18.83
78369;BMP280;71113;43.092;-89.268;2023-12-20T09:36:51;98797.69;;;18.82
78369;BMP280;71113;43.092;-89.268;2023-12-20T09:39:19;98798.47;;;18.82
78369;BMP280;71113;43.092;-89.268;2023-12-20T09:42:11;98792.41;;;18.82
78369;BMP280;71113;43.092;-89.268;2023-12-20T09:44:35;98787.13;;;18.82
78369;BMP280;71113;43.092;-89.268;2023-12-20T09:47:05;98795.31;;;18.80
78369;BMP280;71113;43.092;-89.268;2023-12-20T09:49:31;98792.69;;;18.80
78369;BMP280;71113;43.092;-89.268;2023-12-20T09:51:59;98785.09;;;18.79
78369;BMP280;71113;43.092;-89.268;2023-12-20T09:54:27;98786.19;;;18.78
78369;BMP280;71113;43.092;-89.268;2023-12-20T09:56:54;98791.47;;;18.78
78369;BMP280;71113;43.092;-89.268;2023-12-20T09:59:20;98788.31;;;18.76
78369;BMP280;71113;43.092;-89.268;2023-12-20T10:01:46;98792.06;;;18.75
78369;BMP280;71113;43.092;-89.268;2023-12-20T10:04:12;98793.94;;;18.74
78369;BMP280;71113;43.092;-89.268;2023-12-20T10:06:42;98798.88;;;18.76
78369;BMP280;71113;43.092;-89.268;2023-12-20T10:09:12;98806.06;;;18.75
78369;BMP280;71113;43.092;-89.268;2023-12-20T10:11:39;98800.00;;;18.75
78369;BMP280;71113;43.092;-89.268;2023-12-20T10:14:06;98811.34;;;18.75
78369;BMP280;71113;43.092;-89.268;2023-12-20T10:16:33;98806.38;;;18.74
78369;BMP280;71113;43.092;-89.268;2023-12-20T10:18:59;98813.22;;;18.75
78369;BMP280;71113;43.092;-89.268;2023-12-20T10:21:27;98816.94;;;18.74
78369;BMP280;71113;43.092;-89.268;2023-12-20T10:23:57;98816.13;;;18.73
78369;BMP280;71113;43.092;-89.268;2023-12-20T10:26:24;98818.00;;;18.73
78369;BMP280;71113;43.092;-89.268;2023-12-20T10:28:54;98827.00;;;18.72
78369;BMP280;71113;43.092;-89.268;2023-12-20T10:31:27;98833.84;;;18.73
78369;BMP280;71113;43.092;-89.268;2023-12-20T10:33:56;98833.41;;;18.71
78369;BMP280;71113;43.092;-89.268;2023-12-20T10:36:23;98831.22;;;18.73
78369;BMP280;71113;43.092;-89.268;2023-12-20T10:38:50;98825.00;;;18.77
78369;BMP280;71113;43.092;-89.268;2023-12-20T10:41:22;98835.47;;;18.82
78369;BMP280;71113;43.092;-89.268;2023-12-20T10:43:51;98839.09;;;18.86
78369;BMP280;71113;43.092;-89.268;2023-12-20T10:46:19;98839.72;;;18.92
78369;BMP280;71113;43.092;-89.268;2023-12-20T10:48:46;98835.41;;;18.96
78369;BMP280;71113;43.092;-89.268;2023-12-20T10:51:14;98840.56;;;19.01
78369;BMP280;71113;43.092;-89.268;2023-12-20T10:53:43;98841.22;;;19.07
78369;BMP280;71113;43.092;-89.268;2023-12-20T10:56:12;98855.41;;;19.11
78369;BMP280;71113;43.092;-89.268;2023-12-20T10:58:41;98859.78;;;19.15
78369;BMP280;71113;43.092;-89.268;2023-12-20T11:01:09;98866.00;;;19.19
78369;BMP280;71113;43.092;-89.268;2023-12-20T11:03:36;98861.66;;;19.24
78369;BMP280;71113;43.092;-89.268;2023-12-20T11:12:02;98872.34;;;19.41
78369;BMP280;71113;43.092;-89.268;2023-12-20T11:14:45;98862.69;;;19.45
78369;BMP280;71113;43.092;-89.268;2023-12-20T11:17:13;98869.72;;;19.49
78369;BMP280;71113;43.092;-89.268;2023-12-20T11:22:24;98871.81;;;19.61
78369;BMP280;71113;43.092;-89.268;2023-12-20T11:24:52;98881.16;;;19.67
78369;BMP280;71113;43.092;-89.268;2023-12-20T11:27:19;98873.38;;;19.71
78369;BMP280;71113;43.092;-89.268;2023-12-20T11:29:52;98876.66;;;19.76
78369;BMP280;71113;43.092;-89.268;2023-12-20T11:37:37;98887.31;;;19.94
78369;BMP280;71113;43.092;-89.268;2023-12-20T11:40:07;98888.72;;;20.00
78369;BMP280;71113;43.092;-89.268;2023-12-20T11:42:41;98901.34;;;20.03
78369;BMP280;71113;43.092;-89.268;2023-12-20T11:45:13;98901.19;;;20.08
78369;BMP280;71113;43.092;-89.268;2023-12-20T11:47:42;98902.94;;;20.13
78369;BMP280;71113;43.092;-89.268;2023-12-20T11:50:08;98907.75;;;20.19
78369;BMP280;71113;43.092;-89.268;2023-12-20T11:52:35;98904.50;;;20.22
78369;BMP280;71113;43.092;-89.268;2023-12-20T11:55:01;98903.72;;;20.30
78369;BMP280;71113;43.092;-89.268;2023-12-20T11:57:26;98910.41;;;20.36
78369;BMP280;71113;43.092;-89.268;2023-12-20T11:59:52;98914.00;;;20.40
78369;BMP280;71113;43.092;-89.268;2023-12-20T12:02:18;98924.00;;;20.43
78369;BMP280;71113;43.092;-89.268;2023-12-20T12:04:44;98925.38;;;20.50
78369;BMP280;71113;43.092;-89.268;2023-12-20T12:07:10;98922.09;;;20.53
78369;BMP280;71113;43.092;-89.268;2023-12-20T12:09:36;98929.91;;;20.58
78369;BMP280;71113;43.092;-89.268;2023-12-20T12:12:02;98930.25;;;20.56
78369;BMP280;71113;43.092;-89.268;2023-12-20T12:14:28;98932.72;;;20.53
78369;BMP280;71113;43.092;-89.268;2023-12-20T12:16:54;98926.31;;;20.54
78369;BMP280;71113;43.092;-89.268;2023-12-20T12:19:24;98932.72;;;20.53
78369;BMP280;71113;43.092;-89.268;2023-12-20T12:21:51;98938.00;;;20.53
78369;BMP280;71113;43.092;-89.268;2023-12-20T12:24:20;98933.50;;;20.53
78369;BMP280;71113;43.092;-89.268;2023-12-20T12:26:52;98938.00;;;20.53
78369;BMP280;71113;43.092;-89.268;2023-12-20T12:29:18;98941.13;;;20.55
78369;BMP280;71113;43.092;-89.268;2023-12-20T12:31:44;98945.81;;;20.58
78369;BMP280;71113;43.092;-89.268;2023-12-20T12:34:11;98945.38;;;20.64
78369;BMP280;71113;43.092;-89.268;2023-12-20T12:36:37;98943.03;;;20.71
78369;BMP280;71113;43.092;-89.268;2023-12-20T12:39:03;98943.19;;;20.75
78369;BMP280;71113;43.092;-89.268;2023-12-20T12:41:30;98949.09;;;20.81
78369;BMP280;71113;43.092;-89.268;2023-12-20T12:43:56;98952.69;;;20.85
78369;BMP280;71113;43.092;-89.268;2023-12-20T12:46:22;98961.22;;;20.82
78369;BMP280;71113;43.092;-89.268;2023-12-20T12:48:48;98953.16;;;20.78
78369;BMP280;71113;43.092;-89.268;2023-12-20T12:51:15;98968.59;;;20.76
78369;BMP280;71113;43.092;-89.268;2023-12-20T12:53:41;98967.50;;;20.77
78369;BMP280;71113;43.092;-89.268;2023-12-20T12:56:08;98963.28;;;20.76
78369;BMP280;71113;43.092;-89.268;2023-12-20T12:58:33;98959.56;;;20.77
78369;BMP280;71113;43.092;-89.268;2023-12-20T13:01:00;98965.59;;;20.77
78369;BMP280;71113;43.092;-89.268;2023-12-20T13:03:25;98968.59;;;20.76
78369;BMP280;71113;43.092;-89.268;2023-12-20T13:05:51;98959.88;;;20.75
78369;BMP280;71113;43.092;-89.268;2023-12-20T13:08:17;98969.38;;;20.77
78369;BMP280;71113;43.092;-89.268;2023-12-20T13:10:43;98969.38;;;20.77
78369;BMP280;71113;43.092;-89.268;2023-12-20T13:13:09;98967.97;;;20.79
78369;BMP280;71113;43.092;-89.268;2023-12-20T13:15:35;98968.13;;;20.83
78369;BMP280;71113;43.092;-89.268;2023-12-20T13:18:01;98967.66;;;20.89
78369;BMP280;71113;43.092;-89.268;2023-12-20T13:20:26;98970.13;;;20.94
78369;BMP280;71113;43.092;-89.268;2023-12-20T13:22:52;98965.75;;;20.98
78369;BMP280;71113;43.092;-89.268;2023-12-20T13:25:18;98969.19;;;20.99
78369;BMP280;71113;43.092;-89.268;2023-12-20T13:27:44;98968.59;;;20.93
78369;BMP280;71113;43.092;-89.268;2023-12-20T13:30:10;98975.28;;;20.91
78369;BMP280;71113;43.092;-89.268;2023-12-20T13:32:36;98975.59;;;20.89
78369;BMP280;71113;43.092;-89.268;2023-12-20T13:35:02;98985.13;;;20.90
78369;BMP280;71113;43.092;-89.268;2023-12-20T13:37:29;98987.78;;;20.90
78369;BMP280;71113;43.092;-89.268;2023-12-20T13:39:55;98989.34;;;20.91
78369;BMP280;71113;43.092;-89.268;2023-12-20T13:42:21;98995.72;;;20.90
78369;BMP280;71113;43.092;-89.268;2023-12-20T13:44:47;98991.53;;;20.89
78369;BMP280;71113;43.092;-89.268;2023-12-20T13:47:13;99001.03;;;20.90
78369;BMP280;71113;43.092;-89.268;2023-12-20T13:49:38;99000.41;;;20.93
78369;BMP280;71113;43.092;-89.268;2023-12-20T13:52:04;99003.22;;;20.97
78369;BMP280;71113;43.092;-89.268;2023-12-20T13:54:31;99007.25;;;21.03